createdAt,value
2023-05-22T00:00:56.124Z,16.10
2023-05-22T00:05:49.666Z,16.10
2023-05-22T00:10:43.577Z,16.00
2023-05-22T00:15:36.897Z,16.20
2023-05-22T00:20:31.573Z,16.20
2023-05-22T00:25:24.984Z,15.80
2023-05-22T00:30:18.444Z,15.90
2023-05-22T00:35:12.080Z,15.90
2023-05-22T00:40:09.642Z,16.00
2023-05-22T00:45:02.961Z,16.10
2023-05-22T00:49:56.967Z,16.00
2023-05-22T00:54:54.811Z,15.80
2023-05-22T00:59:50.715Z,15.70
2023-05-22T01:04:48.514Z,15.50
2023-05-22T01:09:41.866Z,15.60
2023-05-22T01:14:48.387Z,15.80
2023-05-22T01:20:14.342Z,15.60
2023-05-22T01:25:37.315Z,15.60
2023-05-22T01:31:00.667Z,15.50
2023-05-22T01:35:58.523Z,15.40
2023-05-22T01:40:52.214Z,15.50
2023-05-22T01:45:46.103Z,15.50
2023-05-22T01:50:41.932Z,15.60
2023-05-22T01:55:46.352Z,15.80
2023-05-22T02:00:45.988Z,15.80
2023-05-22T02:05:42.025Z,16.00
2023-05-22T02:10:37.700Z,16.00
2023-05-22T02:15:32.152Z,16.00
2023-05-22T02:20:25.539Z,16.00
2023-05-22T02:25:20.330Z,16.10
2023-05-22T02:30:15.499Z,16.10
2023-05-22T02:35:10.247Z,16.10
2023-05-22T02:40:06.171Z,16.00
2023-05-22T02:45:01.006Z,15.90
2023-05-22T02:49:54.366Z,15.90
2023-05-22T02:54:47.683Z,15.90
2023-05-22T02:59:41.000Z,15.70
2023-05-22T03:04:38.648Z,15.70
2023-05-22T03:09:32.031Z,15.70
2023-05-22T03:14:25.431Z,15.60
2023-05-22T03:19:18.763Z,15.60
2023-05-22T03:24:13.725Z,15.60
2023-05-22T03:29:07.115Z,15.40
2023-05-22T03:34:00.897Z,15.20
2023-05-22T03:38:54.564Z,15.20
2023-05-22T03:43:49.312Z,15.20
2023-05-22T03:48:42.684Z,15.10
2023-05-22T03:53:36.014Z,15.10
2023-05-22T03:58:29.333Z,15.10
2023-05-22T04:03:24.149Z,15.30
2023-05-22T04:08:17.516Z,15.10
2023-05-22T04:13:10.900Z,14.90
2023-05-22T04:18:04.275Z,14.80
2023-05-22T04:22:59.136Z,14.90
2023-05-22T04:27:52.501Z,15.00
2023-05-22T04:32:45.892Z,14.90
2023-05-22T04:37:40.835Z,14.80
2023-05-22T04:42:37.375Z,14.90
2023-05-22T04:47:31.831Z,15.00
2023-05-22T04:52:25.576Z,14.70
2023-05-22T04:57:18.941Z,14.70
2023-05-22T05:02:13.760Z,15.00
2023-05-22T05:07:07.229Z,15.20
2023-05-22T05:12:00.603Z,15.60
2023-05-22T05:16:54.804Z,15.80
2023-05-22T05:21:50.471Z,16.10
2023-05-22T05:26:44.104Z,16.30
2023-05-22T05:31:37.494Z,16.30
2023-05-22T05:36:31.616Z,16.60
2023-05-22T05:41:27.233Z,16.50
2023-05-22T05:46:20.928Z,16.40
2023-05-22T05:51:14.452Z,16.40
2023-05-22T05:56:09.392Z,16.70
2023-05-22T06:01:04.926Z,16.90
2023-05-22T06:05:59.375Z,16.90
2023-05-22T06:10:52.946Z,16.90
2023-05-22T06:15:46.294Z,17.00
2023-05-22T06:20:41.320Z,16.90
2023-05-22T06:25:34.961Z,16.80
2023-05-22T06:30:39.612Z,16.80
2023-05-22T06:35:33.655Z,16.80
2023-05-22T06:40:28.442Z,16.90
2023-05-22T06:45:21.868Z,17.00
2023-05-22T06:50:15.249Z,17.10
2023-05-22T06:55:09.929Z,17.20
2023-05-22T07:00:07.685Z,17.40
2023-05-22T07:05:01.078Z,17.40
2023-05-22T07:09:54.526Z,17.50
2023-05-22T07:14:47.953Z,17.70
2023-05-22T07:19:42.655Z,17.90
2023-05-22T07:24:36.241Z,18.10
2023-05-22T07:29:29.615Z,18.30
2023-05-22T07:34:23.424Z,18.50
2023-05-22T07:39:18.137Z,18.80
2023-05-22T07:44:11.521Z,18.90
2023-05-22T07:49:04.854Z,19.10
2023-05-22T07:58:53.789Z,19.50
2023-05-22T08:03:47.297Z,19.70
2023-05-22T08:08:40.710Z,19.90
2023-05-22T08:13:34.092Z,20.00
2023-05-22T08:18:29.570Z,20.30
2023-05-22T08:23:23.330Z,20.50
2023-05-22T08:28:16.697Z,20.70
2023-05-22T08:33:10.036Z,21.00
2023-05-22T08:38:04.974Z,21.20
2023-05-22T08:42:58.541Z,21.20
2023-05-22T08:47:56.585Z,21.50
2023-05-22T08:52:58.396Z,21.80
2023-05-22T08:57:54.022Z,21.90
2023-05-22T09:02:49.102Z,22.00
2023-05-22T09:07:42.521Z,22.00
2023-05-22T09:12:37.934Z,22.00
2023-05-22T09:17:32.634Z,22.20
2023-05-22T09:22:39.019Z,22.40
2023-05-22T09:27:32.407Z,22.40
2023-05-22T09:32:26.133Z,22.50
2023-05-22T09:37:20.867Z,22.70
2023-05-22T09:42:17.786Z,22.70
2023-05-22T09:47:11.645Z,22.80
2023-05-22T09:52:09.784Z,22.80
2023-05-22T09:57:10.473Z,22.90
2023-05-22T10:02:04.214Z,23.00
2023-05-22T10:07:03.709Z,23.00
2023-05-22T10:12:05.178Z,23.10
2023-05-22T10:17:03.130Z,23.10
2023-05-22T10:22:01.509Z,23.30
2023-05-22T10:26:56.398Z,23.40
2023-05-22T10:32:00.165Z,23.50
2023-05-22T10:37:18.322Z,23.50
2023-05-22T10:42:15.527Z,23.70
2023-05-22T10:47:12.668Z,23.70
2023-05-22T10:52:10.165Z,23.90
2023-05-22T10:57:14.617Z,24.00
2023-05-22T11:02:20.777Z,24.00
2023-05-22T11:07:15.616Z,24.10
2023-05-22T11:12:25.833Z,24.40
2023-05-22T11:17:23.123Z,24.50
2023-05-22T11:22:19.363Z,24.50
2023-05-22T11:27:12.827Z,24.90
2023-05-22T11:32:09.172Z,25.00
2023-05-22T11:37:02.740Z,25.00
2023-05-22T11:41:57.480Z,25.10
2023-05-22T11:46:51.162Z,25.20
2023-05-22T11:51:45.108Z,25.40
2023-05-22T11:56:38.440Z,25.50
2023-05-22T12:01:33.990Z,25.20
2023-05-22T12:06:27.503Z,25.20
2023-05-22T12:11:21.676Z,25.30
2023-05-22T12:16:23.004Z,25.30
2023-05-22T12:21:20.542Z,25.30
2023-05-22T12:26:13.871Z,25.30
2023-05-22T12:31:07.231Z,25.30
2023-05-22T12:36:00.891Z,25.10
2023-05-22T12:40:57.271Z,25.00
2023-05-22T12:45:50.666Z,24.90
2023-05-22T12:50:44.252Z,24.90
2023-05-22T12:55:37.873Z,24.90
2023-05-22T13:00:32.702Z,24.90
2023-05-22T13:05:26.490Z,24.90
2023-05-22T13:10:20.434Z,24.90
2023-05-22T13:15:15.378Z,25.00
2023-05-22T13:20:12.152Z,25.00
2023-05-22T13:25:06.828Z,25.00
2023-05-22T13:30:00.203Z,24.90
2023-05-22T13:34:53.591Z,25.00
2023-05-22T13:39:48.588Z,24.90
2023-05-22T13:44:41.943Z,24.90
2023-05-22T13:49:35.329Z,24.80
2023-05-22T13:54:29.164Z,24.90
2023-05-22T13:59:23.926Z,24.90
2023-05-22T14:04:17.369Z,25.00
2023-05-22T14:09:10.775Z,25.00
2023-05-22T14:14:04.200Z,25.00
2023-05-22T14:19:00.983Z,25.00
2023-05-22T14:23:54.382Z,25.00
2023-05-22T14:28:47.670Z,25.00
2023-05-22T14:33:41.005Z,25.00
2023-05-22T14:38:36.295Z,25.10
2023-05-22T14:43:29.726Z,25.00
2023-05-22T14:48:26.294Z,24.90
2023-05-22T14:53:19.860Z,24.90
2023-05-22T14:58:14.741Z,24.90
2023-05-22T15:03:08.164Z,24.80
2023-05-22T15:08:01.654Z,24.80
2023-05-22T15:12:55.241Z,24.80
2023-05-22T15:17:49.973Z,24.80
2023-05-22T15:22:43.312Z,24.80
2023-05-22T15:27:37.355Z,24.70
2023-05-22T15:32:31.616Z,24.60
2023-05-22T15:37:26.417Z,24.50
2023-05-22T15:42:19.829Z,24.50
2023-05-22T15:47:13.202Z,24.50
2023-05-22T15:52:06.995Z,24.70
2023-05-22T15:57:01.868Z,24.70
2023-05-22T16:01:55.217Z,24.80
2023-05-22T16:06:48.635Z,24.80
2023-05-22T16:11:41.979Z,24.70
2023-05-22T16:16:36.997Z,24.60
2023-05-22T16:21:31.002Z,24.60
2023-05-22T16:26:24.421Z,24.50
2023-05-22T16:31:19.800Z,24.50
2023-05-22T16:36:14.645Z,24.30
2023-05-22T16:41:07.980Z,24.20
2023-05-22T16:46:01.304Z,24.10
2023-05-22T16:50:54.652Z,24.00
2023-05-22T16:55:49.443Z,24.00
2023-05-22T17:00:43.037Z,24.00
2023-05-22T17:05:36.632Z,23.90
2023-05-22T17:10:30.082Z,23.80
2023-05-22T17:15:24.864Z,23.70
2023-05-22T17:20:19.002Z,23.50
2023-05-22T17:25:12.428Z,23.40
2023-05-22T17:30:07.850Z,23.40
2023-05-22T17:35:03.324Z,23.30
2023-05-22T17:39:56.685Z,23.20
2023-05-22T17:44:50.000Z,23.10
2023-05-22T17:49:43.310Z,22.90
2023-05-22T17:54:37.989Z,22.80
2023-05-22T17:59:32.155Z,22.70
2023-05-22T18:04:25.495Z,22.60
2023-05-22T18:09:18.884Z,22.50
2023-05-22T18:14:13.629Z,22.40
2023-05-22T18:19:07.103Z,22.30
2023-05-22T18:24:00.496Z,22.10
2023-05-22T18:29:10.360Z,22.00
2023-05-22T18:34:08.990Z,21.90
2023-05-22T18:39:02.336Z,21.90
2023-05-22T18:43:55.672Z,21.70
2023-05-22T18:48:49.907Z,21.60
2023-05-22T18:53:44.576Z,21.50
2023-05-22T18:58:41.273Z,21.50
2023-05-22T19:03:34.667Z,21.30
2023-05-22T19:08:34.696Z,21.10
2023-05-22T19:13:29.838Z,21.10
2023-05-22T19:18:23.350Z,20.80
2023-05-22T19:23:16.757Z,20.40
2023-05-22T19:28:10.076Z,20.30
2023-05-22T19:33:06.536Z,20.20
2023-05-22T19:38:02.126Z,20.30
2023-05-22T19:42:55.501Z,20.10
2023-05-22T19:47:48.896Z,20.10
2023-05-22T19:52:43.636Z,19.90
2023-05-22T19:57:37.284Z,19.80
2023-05-22T20:02:30.647Z,19.70
2023-05-22T20:07:24.023Z,19.70
2023-05-22T20:12:18.724Z,19.70
2023-05-22T20:17:12.033Z,19.90
2023-05-22T20:22:06.152Z,19.80
2023-05-22T20:26:59.435Z,19.70
2023-05-22T20:31:55.845Z,19.40
2023-05-22T20:36:50.894Z,18.90
2023-05-22T20:41:44.232Z,19.00
2023-05-22T20:46:39.166Z,19.10
2023-05-22T20:51:33.901Z,18.90
2023-05-22T20:56:27.656Z,19.00
2023-05-22T21:01:21.150Z,19.00
2023-05-22T21:06:14.620Z,18.70
2023-05-22T21:11:09.303Z,18.60
2023-05-22T21:16:02.656Z,18.50
2023-05-22T21:20:56.125Z,18.60
2023-05-22T21:25:49.584Z,18.60
2023-05-22T21:31:23.633Z,18.40
2023-05-22T21:36:07.775Z,18.40
2023-05-22T21:41:01.211Z,18.00
2023-05-22T21:45:55.891Z,18.10
2023-05-22T21:50:50.303Z,18.20
2023-05-22T21:55:43.599Z,18.30
2023-05-22T22:00:37.257Z,18.50
2023-05-22T22:05:34.444Z,18.50
2023-05-22T22:10:27.824Z,18.50
2023-05-22T22:15:21.782Z,18.50
2023-05-22T22:20:15.081Z,18.50
2023-05-22T22:25:11.108Z,18.10
2023-05-22T22:30:04.886Z,17.90
2023-05-22T22:34:58.231Z,18.00
2023-05-22T22:39:51.628Z,17.60
2023-05-22T22:44:46.380Z,17.60
2023-05-22T22:49:39.693Z,17.70
2023-05-22T22:54:33.000Z,17.80
2023-05-22T22:59:26.475Z,17.60
2023-05-22T23:04:21.286Z,17.30
2023-05-22T23:09:14.787Z,17.30
2023-05-22T23:14:09.915Z,17.40
2023-05-22T23:19:03.812Z,17.60
2023-05-22T23:23:58.597Z,17.20
2023-05-22T23:28:51.940Z,17.20
2023-05-22T23:33:45.815Z,17.20
2023-05-22T23:38:39.168Z,17.10
2023-05-22T23:43:34.047Z,17.10
2023-05-22T23:48:27.359Z,17.00
2023-05-22T23:53:20.690Z,16.80
2023-05-22T23:58:15.915Z,16.90
